This is the latest recevied weather packets stored in our database for station/object IW1EYZ-3. If no packets are shown the sender has not sent any weather packets the latest 10 day(s).
| Time | Temp. | Humidity | Pressure | Rain* | Wind** | Luminosity | Snow |
|---|---|---|---|---|---|---|---|
| 1776972524 | 16.67° C | 53% | 1020.9 hPa | - | - | - | - |
| 1776971323 | 17.22° C | 52% | 1020.9 hPa | - | - | - | - |
| 1776970123 | 17.22° C | 50% | 1020.9 hPa | - | - | - | - |
| 1776968923 | 17.22° C | 50% | 1020.7 hPa | - | - | - | - |
| 1776967722 | 18.33° C | 48% | 1020.5 hPa | - | - | - | - |
| 1776966522 | 18.89° C | 45% | 1020.5 hPa | - | - | - | - |
| 1776965322 | 18.89° C | 44% | 1020.7 hPa | - | - | - | - |
| 1776964121 | 19.44° C | 42% | 1020.7 hPa | - | - | - | - |
| 1776962921 | 23.33° C | 33% | 1020.8 hPa | - | - | - | - |
| 1776961721 | 29.44° C | 23% | 1020.9 hPa | - | - | - | - |
| 1776960521 | 28.33° C | 24% | 1021.2 hPa | - | - | - | - |
| 1776959320 | 27.22° C | 26% | 1021.3 hPa | - | - | - | - |
| 1776958120 | 31.67° C | 20% | 1021.4 hPa | - | - | - | - |
| 1776956919 | 28.89° C | 22% | 1021.8 hPa | - | - | - | - |
| 1776955719 | 32.22° C | 19% | 1021.8 hPa | - | - | - | - |
| 1776954519 | 31.11° C | 21% | 1022.1 hPa | - | - | - | - |
| 1776953319 | 28.89° C | 24% | 1022.2 hPa | - | - | - | - |
| 1776952118 | 30.56° C | 23% | 1022.5 hPa | - | - | - | - |
| 1776950918 | 25.56° C | 29% | 1022.8 hPa | - | - | - | - |
| 1776949718 | 30° C | 25% | 1022.7 hPa | - | - | - | - |
| 1776948517 | 26.67° C | 31% | 1022.9 hPa | - | - | - | - |
| 1776947317 | 28.33° C | 26% | 1022.9 hPa | - | - | - | - |
| 1776946117 | 27.78° C | 26% | 1022.9 hPa | - | - | - | - |
| 1776944916 | 29.44° C | 23% | 1023 hPa | - | - | - | - |
| 1776943716 | 27.22° C | 26% | 1023.3 hPa | - | - | - | - |
* Rain since midnight (hover to see other rain measurements)
** Current wind speed in m/s (hover to see current wind gust speed)